sensor_id;sensor_type;location;lat;lon;timestamp;P1;durP1;ratioP1;P2;durP2;ratioP2
6626;SDS011;3349;49.830;8.748;2022-07-15T00:01:03;4.97;;;2.65;;
6626;SDS011;3349;49.830;8.748;2022-07-15T00:03:31;3.88;;;2.08;;
6626;SDS011;3349;49.830;8.748;2022-07-15T00:05:58;2.78;;;2.42;;
6626;SDS011;3349;49.830;8.748;2022-07-15T00:08:26;8.18;;;2.55;;
6626;SDS011;3349;49.830;8.748;2022-07-15T00:10:53;3.85;;;2.10;;
6626;SDS011;3349;49.830;8.748;2022-07-15T00:13:20;5.68;;;2.30;;
6626;SDS011;3349;49.830;8.748;2022-07-15T00:15:49;3.50;;;2.25;;
6626;SDS011;3349;49.830;8.748;2022-07-15T00:18:15;3.80;;;2.10;;
6626;SDS011;3349;49.830;8.748;2022-07-15T00:20:42;4.90;;;2.22;;
6626;SDS011;3349;49.830;8.748;2022-07-15T00:23:10;3.20;;;2.17;;
6626;SDS011;3349;49.830;8.748;2022-07-15T00:25:38;4.05;;;2.17;;
6626;SDS011;3349;49.830;8.748;2022-07-15T00:28:05;4.40;;;2.22;;
6626;SDS011;3349;49.830;8.748;2022-07-15T00:30:34;3.35;;;2.08;;
6626;SDS011;3349;49.830;8.748;2022-07-15T00:33:02;3.00;;;2.08;;
6626;SDS011;3349;49.830;8.748;2022-07-15T00:35:30;3.33;;;2.22;;
6626;SDS011;3349;49.830;8.748;2022-07-15T00:37:57;3.05;;;2.20;;
6626;SDS011;3349;49.830;8.748;2022-07-15T00:40:24;2.65;;;2.10;;
6626;SDS011;3349;49.830;8.748;2022-07-15T00:42:52;4.78;;;2.47;;
6626;SDS011;3349;49.830;8.748;2022-07-15T00:45:20;3.97;;;2.58;;
6626;SDS011;3349;49.830;8.748;2022-07-15T00:47:50;3.50;;;2.28;;
6626;SDS011;3349;49.830;8.748;2022-07-15T00:50:18;4.22;;;2.30;;
6626;SDS011;3349;49.830;8.748;2022-07-15T00:52:48;3.13;;;1.95;;
6626;SDS011;3349;49.830;8.748;2022-07-15T00:55:19;5.80;;;2.40;;
6626;SDS011;3349;49.830;8.748;2022-07-15T00:57:47;3.05;;;2.20;;
6626;SDS011;3349;49.830;8.748;2022-07-15T01:00:17;3.85;;;2.30;;
6626;SDS011;3349;49.830;8.748;2022-07-15T01:02:44;4.18;;;2.33;;
6626;SDS011;3349;49.830;8.748;2022-07-15T01:05:15;3.40;;;2.70;;
6626;SDS011;3349;49.830;8.748;2022-07-15T01:07:43;4.43;;;2.53;;
6626;SDS011;3349;49.830;8.748;2022-07-15T01:10:10;3.70;;;2.55;;
6626;SDS011;3349;49.830;8.748;2022-07-15T01:12:37;3.60;;;1.95;;
6626;SDS011;3349;49.830;8.748;2022-07-15T01:15:06;5.50;;;2.60;;
6626;SDS011;3349;49.830;8.748;2022-07-15T01:17:35;2.75;;;1.95;;
6626;SDS011;3349;49.830;8.748;2022-07-15T01:20:02;3.08;;;2.30;;
6626;SDS011;3349;49.830;8.748;2022-07-15T01:22:30;3.70;;;2.47;;
6626;SDS011;3349;49.830;8.748;2022-07-15T01:24:57;3.70;;;2.13;;
6626;SDS011;3349;49.830;8.748;2022-07-15T01:27:24;2.97;;;2.28;;
6626;SDS011;3349;49.830;8.748;2022-07-15T01:29:52;3.00;;;2.30;;
6626;SDS011;3349;49.830;8.748;2022-07-15T01:32:19;3.63;;;2.92;;
6626;SDS011;3349;49.830;8.748;2022-07-15T01:34:46;5.00;;;2.42;;
6626;SDS011;3349;49.830;8.748;2022-07-15T01:37:13;3.53;;;2.28;;
6626;SDS011;3349;49.830;8.748;2022-07-15T01:39:41;3.45;;;2.55;;
6626;SDS011;3349;49.830;8.748;2022-07-15T01:42:08;4.47;;;2.58;;
6626;SDS011;3349;49.830;8.748;2022-07-15T01:44:35;5.20;;;2.47;;
6626;SDS011;3349;49.830;8.748;2022-07-15T01:47:02;5.20;;;2.60;;
6626;SDS011;3349;49.830;8.748;2022-07-15T01:49:28;6.50;;;2.50;;
6626;SDS011;3349;49.830;8.748;2022-07-15T01:51:57;4.00;;;2.55;;
6626;SDS011;3349;49.830;8.748;2022-07-15T01:54:26;3.65;;;2.70;;
6626;SDS011;3349;49.830;8.748;2022-07-15T01:56:55;5.63;;;2.30;;
6626;SDS011;3349;49.830;8.748;2022-07-15T01:59:22;3.92;;;2.30;;
6626;SDS011;3349;49.830;8.748;2022-07-15T02:01:50;7.68;;;2.50;;
6626;SDS011;3349;49.830;8.748;2022-07-15T02:04:18;2.60;;;2.25;;
6626;SDS011;3349;49.830;8.748;2022-07-15T02:06:45;3.65;;;2.50;;
6626;SDS011;3349;49.830;8.748;2022-07-15T02:09:12;4.20;;;2.60;;
6626;SDS011;3349;49.830;8.748;2022-07-15T02:11:39;2.85;;;2.28;;
6626;SDS011;3349;49.830;8.748;2022-07-15T02:14:07;3.83;;;2.92;;
6626;SDS011;3349;49.830;8.748;2022-07-15T02:16:34;3.83;;;2.50;;
6626;SDS011;3349;49.830;8.748;2022-07-15T02:19:01;4.05;;;2.50;;
6626;SDS011;3349;49.830;8.748;2022-07-15T02:21:28;4.10;;;2.50;;
6626;SDS011;3349;49.830;8.748;2022-07-15T02:23:55;2.97;;;2.58;;
6626;SDS011;3349;49.830;8.748;2022-07-15T02:26:23;3.40;;;2.30;;
6626;SDS011;3349;49.830;8.748;2022-07-15T02:28:50;4.47;;;2.47;;
6626;SDS011;3349;49.830;8.748;2022-07-15T02:31:18;3.35;;;2.60;;
6626;SDS011;3349;49.830;8.748;2022-07-15T02:33:45;4.03;;;2.42;;
6626;SDS011;3349;49.830;8.748;2022-07-15T02:36:12;5.30;;;2.67;;
6626;SDS011;3349;49.830;8.748;2022-07-15T02:38:39;4.38;;;2.40;;
6626;SDS011;3349;49.830;8.748;2022-07-15T02:41:06;3.38;;;2.38;;
6626;SDS011;3349;49.830;8.748;2022-07-15T02:43:33;3.17;;;2.10;;
6626;SDS011;3349;49.830;8.748;2022-07-15T02:46:01;3.58;;;2.28;;
6626;SDS011;3349;49.830;8.748;2022-07-15T02:48:29;3.58;;;2.50;;
6626;SDS011;3349;49.830;8.748;2022-07-15T02:50:56;7.80;;;2.20;;
6626;SDS011;3349;49.830;8.748;2022-07-15T02:53:23;2.70;;;2.22;;
6626;SDS011;3349;49.830;8.748;2022-07-15T02:55:53;3.28;;;2.10;;
6626;SDS011;3349;49.830;8.748;2022-07-15T02:58:20;3.03;;;2.38;;
6626;SDS011;3349;49.830;8.748;2022-07-15T03:00:47;2.78;;;2.17;;
6626;SDS011;3349;49.830;8.748;2022-07-15T03:03:14;3.72;;;2.60;;
6626;SDS011;3349;49.830;8.748;2022-07-15T03:05:42;3.95;;;2.55;;
6626;SDS011;3349;49.830;8.748;2022-07-15T03:08:09;3.65;;;2.50;;
6626;SDS011;3349;49.830;8.748;2022-07-15T03:10:36;2.60;;;2.38;;
6626;SDS011;3349;49.830;8.748;2022-07-15T03:13:03;3.30;;;2.45;;
6626;SDS011;3349;49.830;8.748;2022-07-15T03:15:30;3.63;;;2.25;;
6626;SDS011;3349;49.830;8.748;2022-07-15T03:17:57;3.65;;;2.50;;
6626;SDS011;3349;49.830;8.748;2022-07-15T03:20:24;3.25;;;2.53;;
6626;SDS011;3349;49.830;8.748;2022-07-15T03:22:52;3.00;;;2.17;;
6626;SDS011;3349;49.830;8.748;2022-07-15T03:25:19;3.97;;;2.30;;
6626;SDS011;3349;49.830;8.748;2022-07-15T03:27:45;4.25;;;2.72;;
6626;SDS011;3349;49.830;8.748;2022-07-15T03:30:12;3.63;;;2.50;;
6626;SDS011;3349;49.830;8.748;2022-07-15T03:32:40;3.30;;;2.40;;
6626;SDS011;3349;49.830;8.748;2022-07-15T03:35:06;2.90;;;2.60;;
6626;SDS011;3349;49.830;8.748;2022-07-15T03:37:34;4.80;;;2.17;;
6626;SDS011;3349;49.830;8.748;2022-07-15T03:40:02;3.78;;;2.42;;
6626;SDS011;3349;49.830;8.748;2022-07-15T03:42:30;6.70;;;2.78;;
6626;SDS011;3349;49.830;8.748;2022-07-15T03:44:57;3.83;;;2.90;;
6626;SDS011;3349;49.830;8.748;2022-07-15T03:47:24;2.92;;;2.53;;
6626;SDS011;3349;49.830;8.748;2022-07-15T03:49:51;3.10;;;2.45;;
6626;SDS011;3349;49.830;8.748;2022-07-15T03:52:19;3.22;;;2.22;;
6626;SDS011;3349;49.830;8.748;2022-07-15T03:54:45;5.00;;;2.67;;
6626;SDS011;3349;49.830;8.748;2022-07-15T03:57:14;4.68;;;2.50;;
6626;SDS011;3349;49.830;8.748;2022-07-15T03:59:40;4.85;;;2.45;;
6626;SDS011;3349;49.830;8.748;2022-07-15T04:02:07;3.47;;;2.35;;
6626;SDS011;3349;49.830;8.748;2022-07-15T04:04:34;3.17;;;2.22;;
6626;SDS011;3349;49.830;8.748;2022-07-15T04:07:01;9.70;;;2.30;;
6626;SDS011;3349;49.830;8.748;2022-07-15T04:09:28;3.97;;;2.30;;
6626;SDS011;3349;49.830;8.748;2022-07-15T04:11:54;3.35;;;2.60;;
6626;SDS011;3349;49.830;8.748;2022-07-15T04:14:22;4.53;;;2.45;;
6626;SDS011;3349;49.830;8.748;2022-07-15T04:16:49;3.80;;;2.65;;
6626;SDS011;3349;49.830;8.748;2022-07-15T04:19:16;3.70;;;2.60;;
6626;SDS011;3349;49.830;8.748;2022-07-15T04:21:43;4.88;;;2.50;;
6626;SDS011;3349;49.830;8.748;2022-07-15T04:24:10;4.50;;;2.53;;
6626;SDS011;3349;49.830;8.748;2022-07-15T04:26:36;8.48;;;2.20;;
6626;SDS011;3349;49.830;8.748;2022-07-15T04:29:03;4.07;;;1.98;;
6626;SDS011;3349;49.830;8.748;2022-07-15T04:31:31;6.03;;;2.67;;
6626;SDS011;3349;49.830;8.748;2022-07-15T04:33:58;3.03;;;2.20;;
6626;SDS011;3349;49.830;8.748;2022-07-15T04:36:25;5.93;;;2.75;;
6626;SDS011;3349;49.830;8.748;2022-07-15T04:38:51;3.60;;;2.17;;
6626;SDS011;3349;49.830;8.748;2022-07-15T04:41:18;5.05;;;2.38;;
6626;SDS011;3349;49.830;8.748;2022-07-15T04:43:45;5.72;;;2.20;;
6626;SDS011;3349;49.830;8.748;2022-07-15T04:46:12;5.88;;;2.35;;
6626;SDS011;3349;49.830;8.748;2022-07-15T04:48:40;3.00;;;2.10;;
6626;SDS011;3349;49.830;8.748;2022-07-15T04:51:25;3.40;;;2.10;;
6626;SDS011;3349;49.830;8.748;2022-07-15T04:53:51;4.57;;;2.70;;
6626;SDS011;3349;49.830;8.748;2022-07-15T04:56:18;5.50;;;2.47;;
6626;SDS011;3349;49.830;8.748;2022-07-15T04:58:45;4.65;;;2.45;;
6626;SDS011;3349;49.830;8.748;2022-07-15T05:01:11;2.20;;;1.90;;
6626;SDS011;3349;49.830;8.748;2022-07-15T05:03:38;2.90;;;2.30;;
6626;SDS011;3349;49.830;8.748;2022-07-15T05:06:06;3.05;;;2.40;;
6626;SDS011;3349;49.830;8.748;2022-07-15T05:08:33;5.15;;;2.80;;
6626;SDS011;3349;49.830;8.748;2022-07-15T05:11:00;4.63;;;2.45;;
6626;SDS011;3349;49.830;8.748;2022-07-15T05:13:27;3.83;;;2.72;;
6626;SDS011;3349;49.830;8.748;2022-07-15T05:15:54;2.63;;;1.95;;
6626;SDS011;3349;49.830;8.748;2022-07-15T05:18:20;5.53;;;2.20;;
6626;SDS011;3349;49.830;8.748;2022-07-15T05:20:47;2.85;;;2.05;;
6626;SDS011;3349;49.830;8.748;2022-07-15T05:23:16;2.85;;;2.00;;
6626;SDS011;3349;49.830;8.748;2022-07-15T05:25:43;4.80;;;2.60;;
6626;SDS011;3349;49.830;8.748;2022-07-15T05:28:10;2.50;;;1.92;;
6626;SDS011;3349;49.830;8.748;2022-07-15T05:30:37;3.88;;;2.10;;
6626;SDS011;3349;49.830;8.748;2022-07-15T05:33:04;3.05;;;1.90;;
6626;SDS011;3349;49.830;8.748;2022-07-15T05:35:31;2.92;;;2.03;;
6626;SDS011;3349;49.830;8.748;2022-07-15T05:37:58;3.22;;;1.98;;
6626;SDS011;3349;49.830;8.748;2022-07-15T05:40:26;3.95;;;2.38;;
6626;SDS011;3349;49.830;8.748;2022-07-15T05:42:54;3.85;;;2.22;;
6626;SDS011;3349;49.830;8.748;2022-07-15T05:45:21;4.38;;;2.30;;
6626;SDS011;3349;49.830;8.748;2022-07-15T05:47:48;4.35;;;2.22;;
6626;SDS011;3349;49.830;8.748;2022-07-15T05:50:15;4.43;;;2.20;;
6626;SDS011;3349;49.830;8.748;2022-07-15T05:52:42;4.50;;;2.13;;
6626;SDS011;3349;49.830;8.748;2022-07-15T05:55:09;5.50;;;1.88;;
6626;SDS011;3349;49.830;8.748;2022-07-15T05:57:38;3.95;;;2.20;;
6626;SDS011;3349;49.830;8.748;2022-07-15T06:00:05;10.15;;;2.28;;
6626;SDS011;3349;49.830;8.748;2022-07-15T06:02:33;6.43;;;2.45;;
6626;SDS011;3349;49.830;8.748;2022-07-15T06:05:00;2.60;;;2.10;;
6626;SDS011;3349;49.830;8.748;2022-07-15T06:07:27;3.45;;;2.20;;
6626;SDS011;3349;49.830;8.748;2022-07-15T06:09:54;3.60;;;1.92;;
6626;SDS011;3349;49.830;8.748;2022-07-15T06:12:20;4.43;;;2.40;;
6626;SDS011;3349;49.830;8.748;2022-07-15T06:14:49;5.13;;;2.00;;
6626;SDS011;3349;49.830;8.748;2022-07-15T06:17:15;2.95;;;2.15;;
6626;SDS011;3349;49.830;8.748;2022-07-15T06:19:42;7.47;;;2.53;;
6626;SDS011;3349;49.830;8.748;2022-07-15T06:22:09;3.72;;;2.13;;
6626;SDS011;3349;49.830;8.748;2022-07-15T06:24:36;3.40;;;2.50;;
6626;SDS011;3349;49.830;8.748;2022-07-15T06:27:03;2.95;;;2.15;;
6626;SDS011;3349;49.830;8.748;2022-07-15T06:29:29;4.82;;;2.30;;
6626;SDS011;3349;49.830;8.748;2022-07-15T06:31:59;4.57;;;2.20;;
6626;SDS011;3349;49.830;8.748;2022-07-15T06:34:25;5.22;;;2.55;;
6626;SDS011;3349;49.830;8.748;2022-07-15T06:36:53;3.85;;;2.35;;
6626;SDS011;3349;49.830;8.748;2022-07-15T06:39:19;3.75;;;2.20;;
6626;SDS011;3349;49.830;8.748;2022-07-15T06:41:46;3.00;;;2.05;;
6626;SDS011;3349;49.830;8.748;2022-07-15T06:44:13;5.88;;;2.45;;
6626;SDS011;3349;49.830;8.748;2022-07-15T06:46:41;7.18;;;3.42;;
6626;SDS011;3349;49.830;8.748;2022-07-15T06:49:09;5.32;;;2.40;;
6626;SDS011;3349;49.830;8.748;2022-07-15T06:51:35;3.45;;;2.60;;
6626;SDS011;3349;49.830;8.748;2022-07-15T06:54:03;5.90;;;2.38;;
6626;SDS011;3349;49.830;8.748;2022-07-15T06:56:30;3.65;;;2.10;;
6626;SDS011;3349;49.830;8.748;2022-07-15T06:58:56;5.05;;;2.20;;
6626;SDS011;3349;49.830;8.748;2022-07-15T07:01:23;4.07;;;2.00;;
6626;SDS011;3349;49.830;8.748;2022-07-15T07:03:50;5.05;;;2.05;;
6626;SDS011;3349;49.830;8.748;2022-07-15T07:06:18;6.60;;;2.40;;
6626;SDS011;3349;49.830;8.748;2022-07-15T07:08:45;6.38;;;2.58;;
6626;SDS011;3349;49.830;8.748;2022-07-15T07:11:13;4.70;;;2.20;;
6626;SDS011;3349;49.830;8.748;2022-07-15T07:13:40;4.25;;;2.20;;
6626;SDS011;3349;49.830;8.748;2022-07-15T07:16:06;4.07;;;2.00;;
6626;SDS011;3349;49.830;8.748;2022-07-15T07:18:33;5.38;;;1.98;;
6626;SDS011;3349;49.830;8.748;2022-07-15T07:21:00;4.72;;;2.47;;
6626;SDS011;3349;49.830;8.748;2022-07-15T07:23:29;6.57;;;1.95;;
6626;SDS011;3349;49.830;8.748;2022-07-15T07:25:56;8.50;;;2.20;;
6626;SDS011;3349;49.830;8.748;2022-07-15T07:28:23;2.35;;;1.90;;
6626;SDS011;3349;49.830;8.748;2022-07-15T07:30:50;2.78;;;1.70;;
6626;SDS011;3349;49.830;8.748;2022-07-15T07:33:19;3.78;;;1.90;;
6626;SDS011;3349;49.830;8.748;2022-07-15T07:35:46;6.15;;;2.22;;
6626;SDS011;3349;49.830;8.748;2022-07-15T07:38:13;3.53;;;1.85;;
6626;SDS011;3349;49.830;8.748;2022-07-15T07:40:41;4.40;;;1.92;;
6626;SDS011;3349;49.830;8.748;2022-07-15T07:43:08;4.43;;;2.00;;
6626;SDS011;3349;49.830;8.748;2022-07-15T07:45:35;3.45;;;2.20;;
6626;SDS011;3349;49.830;8.748;2022-07-15T07:48:02;2.40;;;1.90;;
6626;SDS011;3349;49.830;8.748;2022-07-15T07:50:29;5.40;;;2.10;;
6626;SDS011;3349;49.830;8.748;2022-07-15T07:52:55;5.00;;;2.15;;
6626;SDS011;3349;49.830;8.748;2022-07-15T07:55:22;3.20;;;2.00;;
6626;SDS011;3349;49.830;8.748;2022-07-15T07:57:51;5.65;;;1.90;;
6626;SDS011;3349;49.830;8.748;2022-07-15T08:00:20;3.88;;;2.45;;
6626;SDS011;3349;49.830;8.748;2022-07-15T08:02:47;2.10;;;1.63;;
6626;SDS011;3349;49.830;8.748;2022-07-15T08:05:16;4.47;;;2.13;;
6626;SDS011;3349;49.830;8.748;2022-07-15T08:07:43;4.13;;;1.88;;
6626;SDS011;3349;49.830;8.748;2022-07-15T08:10:10;3.63;;;1.90;;
6626;SDS011;3349;49.830;8.748;2022-07-15T08:12:38;7.90;;;2.53;;
6626;SDS011;3349;49.830;8.748;2022-07-15T08:15:07;3.90;;;1.80;;
6626;SDS011;3349;49.830;8.748;2022-07-15T08:17:36;3.97;;;1.80;;
6626;SDS011;3349;49.830;8.748;2022-07-15T08:20:04;3.60;;;2.00;;
6626;SDS011;3349;49.830;8.748;2022-07-15T08:22:32;3.97;;;2.03;;
6626;SDS011;3349;49.830;8.748;2022-07-15T08:24:59;3.33;;;2.00;;
6626;SDS011;3349;49.830;8.748;2022-07-15T08:27:26;1.92;;;1.60;;
6626;SDS011;3349;49.830;8.748;2022-07-15T08:29:53;3.10;;;2.03;;
6626;SDS011;3349;49.830;8.748;2022-07-15T08:32:22;4.60;;;1.83;;
6626;SDS011;3349;49.830;8.748;2022-07-15T08:34:49;3.75;;;2.05;;
6626;SDS011;3349;49.830;8.748;2022-07-15T08:37:16;2.60;;;1.77;;
6626;SDS011;3349;49.830;8.748;2022-07-15T08:39:43;4.28;;;2.20;;
6626;SDS011;3349;49.830;8.748;2022-07-15T08:42:09;3.50;;;2.08;;
6626;SDS011;3349;49.830;8.748;2022-07-15T08:44:36;3.78;;;2.17;;
6626;SDS011;3349;49.830;8.748;2022-07-15T08:47:04;3.67;;;1.98;;
6626;SDS011;3349;49.830;8.748;2022-07-15T08:49:33;2.47;;;1.98;;
6626;SDS011;3349;49.830;8.748;2022-07-15T08:52:04;2.53;;;1.73;;
6626;SDS011;3349;49.830;8.748;2022-07-15T08:54:32;4.28;;;2.22;;
6626;SDS011;3349;49.830;8.748;2022-07-15T08:56:59;2.90;;;2.17;;
6626;SDS011;3349;49.830;8.748;2022-07-15T08:59:26;5.38;;;2.35;;
6626;SDS011;3349;49.830;8.748;2022-07-15T09:01:53;2.75;;;1.85;;
6626;SDS011;3349;49.830;8.748;2022-07-15T09:04:20;3.50;;;2.30;;
6626;SDS011;3349;49.830;8.748;2022-07-15T09:06:49;3.47;;;2.20;;
6626;SDS011;3349;49.830;8.748;2022-07-15T09:09:26;4.05;;;2.35;;
6626;SDS011;3349;49.830;8.748;2022-07-15T09:11:56;5.47;;;2.42;;
6626;SDS011;3349;49.830;8.748;2022-07-15T09:14:29;3.90;;;2.30;;
6626;SDS011;3349;49.830;8.748;2022-07-15T09:17:04;4.75;;;2.22;;
6626;SDS011;3349;49.830;8.748;2022-07-15T09:22:29;3.35;;;2.35;;
6626;SDS011;3349;49.830;8.748;2022-07-15T09:25:01;6.13;;;2.38;;
6626;SDS011;3349;49.830;8.748;2022-07-15T09:27:33;5.90;;;2.40;;
6626;SDS011;3349;49.830;8.748;2022-07-15T09:30:19;4.47;;;2.50;;
6626;SDS011;3349;49.830;8.748;2022-07-15T09:33:06;3.72;;;2.60;;
6626;SDS011;3349;49.830;8.748;2022-07-15T09:35:52;7.25;;;2.78;;
6626;SDS011;3349;49.830;8.748;2022-07-15T09:38:34;6.15;;;3.03;;
6626;SDS011;3349;49.830;8.748;2022-07-15T09:41:06;4.40;;;2.65;;
6626;SDS011;3349;49.830;8.748;2022-07-15T09:43:48;4.65;;;2.78;;
6626;SDS011;3349;49.830;8.748;2022-07-15T09:46:17;4.03;;;2.80;;
6626;SDS011;3349;49.830;8.748;2022-07-15T09:48:45;5.45;;;2.92;;
6626;SDS011;3349;49.830;8.748;2022-07-15T09:51:13;3.75;;;2.72;;
6626;SDS011;3349;49.830;8.748;2022-07-15T09:53:42;5.10;;;2.72;;
6626;SDS011;3349;49.830;8.748;2022-07-15T09:56:10;5.00;;;2.40;;
6626;SDS011;3349;49.830;8.748;2022-07-15T09:58:38;6.70;;;2.50;;
6626;SDS011;3349;49.830;8.748;2022-07-15T10:01:06;2.95;;;2.40;;
6626;SDS011;3349;49.830;8.748;2022-07-15T10:03:33;3.58;;;2.60;;
6626;SDS011;3349;49.830;8.748;2022-07-15T10:06:01;4.97;;;2.60;;
6626;SDS011;3349;49.830;8.748;2022-07-15T10:08:28;6.25;;;2.70;;
6626;SDS011;3349;49.830;8.748;2022-07-15T10:10:58;4.55;;;2.85;;
6626;SDS011;3349;49.830;8.748;2022-07-15T10:13:34;4.93;;;2.80;;
6626;SDS011;3349;49.830;8.748;2022-07-15T10:16:27;3.75;;;2.70;;
6626;SDS011;3349;49.830;8.748;2022-07-15T10:19:08;3.55;;;2.70;;
6626;SDS011;3349;49.830;8.748;2022-07-15T10:21:43;5.55;;;2.60;;
6626;SDS011;3349;49.830;8.748;2022-07-15T10:24:25;5.80;;;2.75;;
6626;SDS011;3349;49.830;8.748;2022-07-15T10:27:09;3.72;;;2.85;;
6626;SDS011;3349;49.830;8.748;2022-07-15T10:29:47;4.47;;;2.70;;
6626;SDS011;3349;49.830;8.748;2022-07-15T10:32:14;4.38;;;2.65;;
6626;SDS011;3349;49.830;8.748;2022-07-15T10:34:41;3.33;;;2.60;;
6626;SDS011;3349;49.830;8.748;2022-07-15T10:37:08;6.00;;;3.30;;
6626;SDS011;3349;49.830;8.748;2022-07-15T10:39:50;4.13;;;3.10;;
6626;SDS011;3349;49.830;8.748;2022-07-15T10:42:20;4.43;;;3.00;;
6626;SDS011;3349;49.830;8.748;2022-07-15T10:44:48;4.90;;;3.00;;
6626;SDS011;3349;49.830;8.748;2022-07-15T10:47:17;5.13;;;3.08;;
6626;SDS011;3349;49.830;8.748;2022-07-15T10:49:45;4.35;;;3.05;;
6626;SDS011;3349;49.830;8.748;2022-07-15T10:52:14;4.38;;;2.67;;
6626;SDS011;3349;49.830;8.748;2022-07-15T10:54:46;3.40;;;3.05;;
6626;SDS011;3349;49.830;8.748;2022-07-15T10:57:14;3.55;;;2.83;;
6626;SDS011;3349;49.830;8.748;2022-07-15T10:59:49;5.18;;;3.03;;
6626;SDS011;3349;49.830;8.748;2022-07-15T11:02:19;4.75;;;3.10;;
6626;SDS011;3349;49.830;8.748;2022-07-15T11:04:48;4.35;;;3.13;;
6626;SDS011;3349;49.830;8.748;2022-07-15T11:07:19;4.75;;;3.72;;
6626;SDS011;3349;49.830;8.748;2022-07-15T11:09:50;9.05;;;3.70;;
6626;SDS011;3349;49.830;8.748;2022-07-15T11:12:19;3.85;;;3.17;;
6626;SDS011;3349;49.830;8.748;2022-07-15T11:14:52;4.22;;;3.50;;
6626;SDS011;3349;49.830;8.748;2022-07-15T11:17:21;3.58;;;3.00;;
6626;SDS011;3349;49.830;8.748;2022-07-15T11:19:53;6.15;;;3.20;;
6626;SDS011;3349;49.830;8.748;2022-07-15T11:22:22;3.30;;;3.00;;
6626;SDS011;3349;49.830;8.748;2022-07-15T11:24:50;4.68;;;3.10;;
6626;SDS011;3349;49.830;8.748;2022-07-15T11:27:17;4.93;;;3.22;;
6626;SDS011;3349;49.830;8.748;2022-07-15T11:29:49;5.38;;;3.35;;
6626;SDS011;3349;49.830;8.748;2022-07-15T11:32:19;6.10;;;3.50;;
6626;SDS011;3349;49.830;8.748;2022-07-15T11:34:49;4.80;;;3.30;;
6626;SDS011;3349;49.830;8.748;2022-07-15T11:37:17;5.35;;;3.40;;
6626;SDS011;3349;49.830;8.748;2022-07-15T11:39:46;4.45;;;3.42;;
6626;SDS011;3349;49.830;8.748;2022-07-15T11:42:20;6.90;;;3.70;;
6626;SDS011;3349;49.830;8.748;2022-07-15T11:45:06;6.43;;;3.72;;
6626;SDS011;3349;49.830;8.748;2022-07-15T11:47:36;6.63;;;3.70;;
6626;SDS011;3349;49.830;8.748;2022-07-15T11:50:17;7.70;;;3.50;;
6626;SDS011;3349;49.830;8.748;2022-07-15T11:52:44;8.13;;;4.07;;
6626;SDS011;3349;49.830;8.748;2022-07-15T11:55:11;6.43;;;3.60;;
6626;SDS011;3349;49.830;8.748;2022-07-15T11:57:38;5.53;;;3.40;;
6626;SDS011;3349;49.830;8.748;2022-07-15T12:00:11;5.13;;;4.10;;
6626;SDS011;3349;49.830;8.748;2022-07-15T12:02:40;4.15;;;3.33;;
6626;SDS011;3349;49.830;8.748;2022-07-15T12:05:08;5.90;;;3.72;;
6626;SDS011;3349;49.830;8.748;2022-07-15T12:07:42;4.85;;;3.58;;
6626;SDS011;3349;49.830;8.748;2022-07-15T12:10:10;5.32;;;3.88;;
6626;SDS011;3349;49.830;8.748;2022-07-15T12:12:42;3.75;;;3.35;;
6626;SDS011;3349;49.830;8.748;2022-07-15T12:15:18;4.45;;;3.65;;
6626;SDS011;3349;49.830;8.748;2022-07-15T12:17:47;4.57;;;3.80;;
6626;SDS011;3349;49.830;8.748;2022-07-15T12:20:15;4.32;;;3.40;;
6626;SDS011;3349;49.830;8.748;2022-07-15T12:25:27;3.78;;;3.10;;
6626;SDS011;3349;49.830;8.748;2022-07-15T12:27:54;4.35;;;3.70;;
6626;SDS011;3349;49.830;8.748;2022-07-15T12:30:28;3.90;;;3.50;;
6626;SDS011;3349;49.830;8.748;2022-07-15T12:36:13;4.80;;;4.13;;
6626;SDS011;3349;49.830;8.748;2022-07-15T12:38:39;4.25;;;3.85;;
6626;SDS011;3349;49.830;8.748;2022-07-15T12:41:08;3.90;;;3.45;;
6626;SDS011;3349;49.830;8.748;2022-07-15T12:43:48;5.85;;;4.00;;
6626;SDS011;3349;49.830;8.748;2022-07-15T12:46:16;4.60;;;3.88;;
6626;SDS011;3349;49.830;8.748;2022-07-15T12:48:44;6.80;;;3.55;;
6626;SDS011;3349;49.830;8.748;2022-07-15T12:51:12;4.90;;;3.83;;
6626;SDS011;3349;49.830;8.748;2022-07-15T12:53:42;5.25;;;3.95;;
6626;SDS011;3349;49.830;8.748;2022-07-15T12:56:10;5.13;;;3.60;;
6626;SDS011;3349;49.830;8.748;2022-07-15T12:58:37;4.18;;;3.70;;
6626;SDS011;3349;49.830;8.748;2022-07-15T13:01:05;4.35;;;3.60;;
6626;SDS011;3349;49.830;8.748;2022-07-15T13:03:33;5.05;;;3.53;;
6626;SDS011;3349;49.830;8.748;2022-07-15T13:06:01;4.05;;;3.58;;
6626;SDS011;3349;49.830;8.748;2022-07-15T13:08:29;4.20;;;3.80;;
6626;SDS011;3349;49.830;8.748;2022-07-15T13:10:58;3.72;;;3.40;;
6626;SDS011;3349;49.830;8.748;2022-07-15T13:13:27;5.93;;;3.78;;
6626;SDS011;3349;49.830;8.748;2022-07-15T13:15:55;3.92;;;3.25;;
6626;SDS011;3349;49.830;8.748;2022-07-15T13:18:24;4.78;;;3.80;;
6626;SDS011;3349;49.830;8.748;2022-07-15T13:20:51;4.10;;;3.70;;
6626;SDS011;3349;49.830;8.748;2022-07-15T13:23:19;3.95;;;3.10;;
6626;SDS011;3349;49.830;8.748;2022-07-15T13:25:45;4.43;;;3.67;;
6626;SDS011;3349;49.830;8.748;2022-07-15T13:28:14;4.82;;;3.50;;
6626;SDS011;3349;49.830;8.748;2022-07-15T13:30:41;3.33;;;3.03;;
6626;SDS011;3349;49.830;8.748;2022-07-15T13:33:07;3.60;;;3.10;;
6626;SDS011;3349;49.830;8.748;2022-07-15T13:35:34;4.70;;;3.30;;
6626;SDS011;3349;49.830;8.748;2022-07-15T13:38:01;3.95;;;3.45;;
6626;SDS011;3349;49.830;8.748;2022-07-15T13:40:28;5.85;;;3.58;;
6626;SDS011;3349;49.830;8.748;2022-07-15T13:42:55;4.78;;;3.67;;
6626;SDS011;3349;49.830;8.748;2022-07-15T13:45:23;4.65;;;3.38;;
6626;SDS011;3349;49.830;8.748;2022-07-15T13:47:50;4.72;;;3.55;;
6626;SDS011;3349;49.830;8.748;2022-07-15T13:50:17;4.97;;;3.45;;
6626;SDS011;3349;49.830;8.748;2022-07-15T13:53:01;4.40;;;3.38;;
6626;SDS011;3349;49.830;8.748;2022-07-15T13:55:28;4.88;;;3.80;;
6626;SDS011;3349;49.830;8.748;2022-07-15T13:57:55;5.13;;;3.45;;
6626;SDS011;3349;49.830;8.748;2022-07-15T14:00:24;5.32;;;3.90;;
6626;SDS011;3349;49.830;8.748;2022-07-15T14:02:52;6.22;;;3.50;;
6626;SDS011;3349;49.830;8.748;2022-07-15T14:05:20;5.60;;;3.78;;
6626;SDS011;3349;49.830;8.748;2022-07-15T14:07:47;5.57;;;3.42;;
6626;SDS011;3349;49.830;8.748;2022-07-15T14:10:14;4.05;;;3.38;;
6626;SDS011;3349;49.830;8.748;2022-07-15T14:12:41;3.60;;;3.30;;
6626;SDS011;3349;49.830;8.748;2022-07-15T14:15:09;4.60;;;3.08;;
6626;SDS011;3349;49.830;8.748;2022-07-15T14:17:37;5.75;;;3.60;;
6626;SDS011;3349;49.830;8.748;2022-07-15T14:20:04;4.82;;;3.40;;
6626;SDS011;3349;49.830;8.748;2022-07-15T14:22:33;3.80;;;3.22;;
6626;SDS011;3349;49.830;8.748;2022-07-15T14:25:00;3.67;;;3.00;;
6626;SDS011;3349;49.830;8.748;2022-07-15T14:27:27;4.80;;;3.22;;
6626;SDS011;3349;49.830;8.748;2022-07-15T14:29:53;3.67;;;3.05;;
6626;SDS011;3349;49.830;8.748;2022-07-15T14:32:20;4.70;;;3.10;;
6626;SDS011;3349;49.830;8.748;2022-07-15T14:34:49;3.42;;;3.05;;
6626;SDS011;3349;49.830;8.748;2022-07-15T14:37:16;3.97;;;3.17;;
6626;SDS011;3349;49.830;8.748;2022-07-15T14:39:42;3.35;;;3.05;;
6626;SDS011;3349;49.830;8.748;2022-07-15T14:42:09;3.10;;;2.85;;
6626;SDS011;3349;49.830;8.748;2022-07-15T14:44:37;3.63;;;2.85;;
6626;SDS011;3349;49.830;8.748;2022-07-15T14:47:04;4.10;;;3.40;;
6626;SDS011;3349;49.830;8.748;2022-07-15T14:49:31;5.00;;;3.10;;
6626;SDS011;3349;49.830;8.748;2022-07-15T14:51:59;4.40;;;3.30;;
6626;SDS011;3349;49.830;8.748;2022-07-15T14:54:26;4.20;;;3.17;;
6626;SDS011;3349;49.830;8.748;2022-07-15T14:56:52;3.47;;;3.17;;
6626;SDS011;3349;49.830;8.748;2022-07-15T14:59:19;3.80;;;3.40;;
6626;SDS011;3349;49.830;8.748;2022-07-15T15:01:46;4.10;;;3.20;;
6626;SDS011;3349;49.830;8.748;2022-07-15T15:04:13;3.15;;;2.85;;
6626;SDS011;3349;49.830;8.748;2022-07-15T15:06:40;3.40;;;3.10;;
6626;SDS011;3349;49.830;8.748;2022-07-15T15:09:08;4.25;;;3.40;;
6626;SDS011;3349;49.830;8.748;2022-07-15T15:11:35;3.28;;;2.85;;
6626;SDS011;3349;49.830;8.748;2022-07-15T15:14:02;3.95;;;3.28;;
6626;SDS011;3349;49.830;8.748;2022-07-15T15:16:29;4.05;;;3.10;;
6626;SDS011;3349;49.830;8.748;2022-07-15T15:18:56;5.28;;;3.15;;
6626;SDS011;3349;49.830;8.748;2022-07-15T15:21:23;3.67;;;3.03;;
6626;SDS011;3349;49.830;8.748;2022-07-15T15:23:51;3.50;;;3.10;;
6626;SDS011;3349;49.830;8.748;2022-07-15T15:26:19;3.47;;;3.17;;
6626;SDS011;3349;49.830;8.748;2022-07-15T15:28:50;3.83;;;3.42;;
6626;SDS011;3349;49.830;8.748;2022-07-15T15:31:18;3.83;;;3.42;;